IBE06VL LICC-LEMD
Flight info
| Callsign | IBE06VL |
|---|---|
| Flight time | 2h 36m |
| Altitude | 36000 |
| Route | LIBRO M871 PAL DCT LUNAM DCT GOKMI DCT SUPUX DCT KUPIM DCT SUXER DCT RIPAL DCT MORSS DCT MHN DCT CDP DCT OLUTO N733 PRADO |
| Aircraft | A320/M-SDE3FGHIRWY/LB1 |
Departure
| Time | 2026-05-07 14:11 |
|---|---|
| Airport | Catania-Fontanarossa Airport (LICC) |
Arrival
| Time | 2026-05-07 16:48 |
|---|---|
| Airport | Adolfo Suárez Madrid–Barajas Airport (LEMD) |
| Time | Latitude | Longitude | Altitude | Speed | Heading |
|---|---|---|---|---|---|
| 2026-05-07 13:34 | 37.46941 | 15.06524 | 51 ft | 0 kts | 19° |
| 2026-05-07 14:03 | 37.46939 | 15.06523 | 51 ft | 2 kts | 19° |
| 2026-05-07 14:04 | 37.46914 | 15.06513 | 66 ft | 4 kts | 19° |
| 2026-05-07 14:04 | 37.46889 | 15.06502 | 46 ft | 4 kts | 20° |
| 2026-05-07 14:04 | 37.46869 | 15.06495 | 49 ft | 4 kts | 1° |
| 2026-05-07 14:04 | 37.46845 | 15.06502 | 49 ft | 4 kts | 315° |
| 2026-05-07 14:05 | 37.46834 | 15.06527 | 49 ft | 2 kts | 265° |
| 2026-05-07 14:05 | 37.46835 | 15.06530 | 51 ft | 0 kts | 264° |
| 2026-05-07 14:06 | 37.46834 | 15.06528 | 51 ft | 1 kts | 264° |
| 2026-05-07 14:07 | 37.46833 | 15.06503 | 49 ft | 5 kts | 264° |
| 2026-05-07 14:07 | 37.46828 | 15.06447 | 51 ft | 8 kts | 264° |
| 2026-05-07 14:07 | 37.46821 | 15.06361 | 47 ft | 11 kts | 264° |
| 2026-05-07 14:07 | 37.46811 | 15.06248 | 51 ft | 15 kts | 264° |
| 2026-05-07 14:08 | 37.46799 | 15.06108 | 51 ft | 18 kts | 264° |
| 2026-05-07 14:08 | 37.46786 | 15.05946 | 51 ft | 19 kts | 264° |
| 2026-05-07 14:08 | 37.46772 | 15.05784 | 51 ft | 18 kts | 264° |
| 2026-05-07 14:08 | 37.46758 | 15.05622 | 51 ft | 19 kts | 264° |
| 2026-05-07 14:09 | 37.46743 | 15.05445 | 51 ft | 20 kts | 264° |
| 2026-05-07 14:09 | 37.46737 | 15.05367 | 51 ft | 10 kts | 264° |
| 2026-05-07 14:09 | 37.46704 | 15.05295 | 51 ft | 10 kts | 223° |
| 2026-05-07 14:09 | 37.46649 | 15.05230 | 51 ft | 11 kts | 223° |
| 2026-05-07 14:10 | 37.46578 | 15.05207 | 51 ft | 11 kts | 146° |
| 2026-05-07 14:10 | 37.46566 | 15.05293 | 51 ft | 11 kts | 84° |
| 2026-05-07 14:10 | 37.46587 | 15.05541 | 50 ft | 60 kts | 83° |
| 2026-05-07 14:10 | 37.46654 | 15.06327 | 52 ft | 117 kts | 85° |
| 2026-05-07 14:11 | 37.46720 | 15.07451 | 464 ft | 131 kts | 83° |
| 2026-05-07 14:11 | 37.46817 | 15.08576 | 1135 ft | 129 kts | 82° |
| 2026-05-07 14:11 | 37.46978 | 15.09730 | 1576 ft | 143 kts | 79° |
| 2026-05-07 14:11 | 37.47169 | 15.11048 | 1818 ft | 164 kts | 79° |
| 2026-05-07 14:12 | 37.47384 | 15.12554 | 2096 ft | 184 kts | 81° |
| 2026-05-07 14:12 | 37.47613 | 15.14169 | 2764 ft | 190 kts | 82° |
| 2026-05-07 14:12 | 37.47842 | 15.15805 | 3499 ft | 192 kts | 82° |
| 2026-05-07 14:12 | 37.48072 | 15.17463 | 4214 ft | 194 kts | 81° |
| 2026-05-07 14:13 | 37.48305 | 15.19146 | 5027 ft | 197 kts | 82° |
| 2026-05-07 14:13 | 37.48542 | 15.20879 | 5661 ft | 208 kts | 85° |
| 2026-05-07 14:13 | 37.48791 | 15.22745 | 6135 ft | 223 kts | 84° |
| 2026-05-07 14:13 | 37.49056 | 15.24728 | 6620 ft | 234 kts | 89° |
| 2026-05-07 14:14 | 37.48960 | 15.26747 | 7148 ft | 231 kts | 115° |
| 2026-05-07 14:14 | 37.48144 | 15.28447 | 7716 ft | 226 kts | 142° |
| 2026-05-07 14:14 | 37.46835 | 15.29486 | 8253 ft | 225 kts | 166° |
| 2026-05-07 14:14 | 37.45820 | 15.29756 | 8601 ft | 227 kts | 175° |
| 2026-05-07 14:15 | 37.44252 | 15.30052 | 9343 ft | 228 kts | 181° |
| 2026-05-07 14:15 | 37.42722 | 15.29742 | 9986 ft | 224 kts | 209° |
| 2026-05-07 14:15 | 37.41520 | 15.28500 | 10439 ft | 234 kts | 236° |
| 2026-05-07 14:15 | 37.40960 | 15.26489 | 10656 ft | 259 kts | 260° |
| 2026-05-07 14:16 | 37.40748 | 15.24134 | 10854 ft | 283 kts | 261° |
| 2026-05-07 14:16 | 37.40530 | 15.21570 | 11010 ft | 307 kts | 262° |
| 2026-05-07 14:16 | 37.40296 | 15.18801 | 11165 ft | 330 kts | 262° |
| 2026-05-07 14:16 | 37.40043 | 15.15876 | 11644 ft | 340 kts | 262° |
| 2026-05-07 14:17 | 37.39782 | 15.12892 | 12319 ft | 343 kts | 261° |
| 2026-05-07 14:17 | 37.39524 | 15.09910 | 13085 ft | 345 kts | 263° |
| 2026-05-07 14:17 | 37.39666 | 15.06869 | 13665 ft | 354 kts | 278° |
| 2026-05-07 14:17 | 37.40195 | 15.03790 | 14266 ft | 357 kts | 279° |
| 2026-05-07 14:18 | 37.40725 | 15.00725 | 14888 ft | 359 kts | 279° |
| 2026-05-07 14:18 | 37.41256 | 14.97641 | 15418 ft | 363 kts | 279° |
| 2026-05-07 14:18 | 37.41783 | 14.94586 | 16051 ft | 363 kts | 279° |
| 2026-05-07 14:18 | 37.42320 | 14.91463 | 16638 ft | 367 kts | 279° |
| 2026-05-07 14:19 | 37.42855 | 14.88323 | 17292 ft | 367 kts | 279° |
| 2026-05-07 14:19 | 37.43389 | 14.85173 | 17887 ft | 370 kts | 279° |
| 2026-05-07 14:19 | 37.43928 | 14.81995 | 18377 ft | 373 kts | 279° |
| 2026-05-07 14:19 | 37.44708 | 14.78862 | 18847 ft | 379 kts | 290° |
| 2026-05-07 14:20 | 37.45999 | 14.75940 | 19317 ft | 387 kts | 300° |
| 2026-05-07 14:20 | 37.47539 | 14.73152 | 19796 ft | 389 kts | 300° |
| 2026-05-07 14:20 | 37.49084 | 14.70349 | 20274 ft | 391 kts | 300° |
| 2026-05-07 14:20 | 37.50632 | 14.67530 | 20738 ft | 392 kts | 299° |
| 2026-05-07 14:21 | 37.52184 | 14.64697 | 21189 ft | 395 kts | 300° |
| 2026-05-07 14:21 | 37.53748 | 14.61841 | 21637 ft | 397 kts | 300° |
| 2026-05-07 14:21 | 37.55315 | 14.58972 | 22110 ft | 398 kts | 300° |
| 2026-05-07 14:21 | 37.56889 | 14.56092 | 22564 ft | 400 kts | 299° |
| 2026-05-07 14:22 | 37.58470 | 14.53195 | 23003 ft | 402 kts | 299° |
| 2026-05-07 14:22 | 37.60059 | 14.50282 | 23446 ft | 404 kts | 299° |
| 2026-05-07 14:22 | 37.61635 | 14.47346 | 23819 ft | 403 kts | 296° |
| 2026-05-07 14:22 | 37.62890 | 14.44209 | 24196 ft | 399 kts | 288° |
| 2026-05-07 14:23 | 37.63948 | 14.40967 | 24592 ft | 400 kts | 288° |
| 2026-05-07 14:23 | 37.65007 | 14.37721 | 25002 ft | 400 kts | 288° |
| 2026-05-07 14:23 | 37.66071 | 14.34471 | 25387 ft | 401 kts | 288° |
| 2026-05-07 14:23 | 37.67139 | 14.31214 | 25781 ft | 402 kts | 288° |
| 2026-05-07 14:24 | 37.68207 | 14.27959 | 26176 ft | 402 kts | 288° |
| 2026-05-07 14:24 | 37.69276 | 14.24697 | 26551 ft | 402 kts | 288° |
| 2026-05-07 14:24 | 37.70346 | 14.21428 | 26913 ft | 403 kts | 287° |
| 2026-05-07 14:24 | 37.71416 | 14.18150 | 27241 ft | 405 kts | 287° |
| 2026-05-07 14:25 | 37.72489 | 14.14857 | 27548 ft | 406 kts | 287° |
| 2026-05-07 14:25 | 37.73214 | 14.12630 | 27778 ft | 406 kts | 287° |
| 2026-05-07 14:25 | 37.74641 | 14.08248 | 28176 ft | 408 kts | 287° |
| 2026-05-07 14:25 | 37.75717 | 14.04934 | 28500 ft | 408 kts | 287° |
| 2026-05-07 14:26 | 37.76794 | 14.01614 | 28913 ft | 407 kts | 286° |
| 2026-05-07 14:26 | 37.77859 | 13.98314 | 29387 ft | 404 kts | 286° |
| 2026-05-07 14:26 | 37.78907 | 13.95035 | 29867 ft | 401 kts | 285° |
| 2026-05-07 14:26 | 37.79940 | 13.91772 | 30262 ft | 399 kts | 285° |
| 2026-05-07 14:27 | 37.80962 | 13.88523 | 30622 ft | 397 kts | 285° |
| 2026-05-07 14:27 | 37.81974 | 13.85285 | 30998 ft | 395 kts | 285° |
| 2026-05-07 14:27 | 37.82981 | 13.82048 | 31273 ft | 396 kts | 285° |
| 2026-05-07 14:27 | 37.83992 | 13.78803 | 31540 ft | 396 kts | 285° |
| 2026-05-07 14:28 | 37.85008 | 13.75561 | 31829 ft | 397 kts | 285° |
| 2026-05-07 14:28 | 37.86024 | 13.72319 | 32125 ft | 396 kts | 285° |
| 2026-05-07 14:28 | 37.87036 | 13.69085 | 32454 ft | 395 kts | 285° |
| 2026-05-07 14:28 | 37.88046 | 13.65861 | 32803 ft | 393 kts | 285° |
| 2026-05-07 14:29 | 37.89061 | 13.62656 | 33155 ft | 392 kts | 286° |
| 2026-05-07 14:29 | 37.90080 | 13.59464 | 33527 ft | 390 kts | 286° |
| 2026-05-07 14:29 | 37.91101 | 13.56285 | 33856 ft | 389 kts | 286° |
| 2026-05-07 14:29 | 37.92123 | 13.53117 | 34181 ft | 387 kts | 286° |
| 2026-05-07 14:30 | 37.93136 | 13.49972 | 34546 ft | 384 kts | 286° |
| 2026-05-07 14:30 | 37.94138 | 13.46852 | 34960 ft | 380 kts | 285° |
| 2026-05-07 14:30 | 37.95125 | 13.43776 | 35384 ft | 375 kts | 285° |
| 2026-05-07 14:30 | 37.96098 | 13.40728 | 35728 ft | 372 kts | 285° |
| 2026-05-07 14:31 | 37.97062 | 13.37687 | 35861 ft | 371 kts | 285° |
| 2026-05-07 14:31 | 37.98978 | 13.31612 | 35873 ft | 371 kts | 285° |
| 2026-05-07 14:32 | 38.00896 | 13.25539 | 35874 ft | 371 kts | 285° |
| 2026-05-07 14:32 | 38.02818 | 13.19462 | 35874 ft | 371 kts | 285° |
| 2026-05-07 14:33 | 38.05063 | 13.13511 | 35875 ft | 375 kts | 290° |
| 2026-05-07 14:33 | 38.07442 | 13.07620 | 35873 ft | 375 kts | 289° |
| 2026-05-07 14:34 | 38.09801 | 13.01726 | 35873 ft | 375 kts | 289° |
| 2026-05-07 14:34 | 38.12158 | 12.95826 | 35875 ft | 375 kts | 289° |
| 2026-05-07 14:35 | 38.14521 | 12.89923 | 35878 ft | 375 kts | 289° |
| 2026-05-07 14:35 | 38.16883 | 12.84018 | 35880 ft | 375 kts | 289° |
| 2026-05-07 14:36 | 38.19240 | 12.78110 | 35916 ft | 375 kts | 289° |
| 2026-05-07 14:36 | 38.21588 | 12.72201 | 35884 ft | 373 kts | 288° |
| 2026-05-07 14:37 | 38.23922 | 12.66302 | 35877 ft | 374 kts | 288° |
| 2026-05-07 14:37 | 38.27436 | 12.57417 | 35862 ft | 376 kts | 288° |
| 2026-05-07 14:38 | 38.29791 | 12.51449 | 35858 ft | 378 kts | 288° |
| 2026-05-07 14:38 | 38.32157 | 12.45447 | 35864 ft | 380 kts | 288° |
| 2026-05-07 14:39 | 38.34528 | 12.39423 | 35888 ft | 381 kts | 288° |
| 2026-05-07 14:39 | 38.36907 | 12.33382 | 35891 ft | 382 kts | 288° |
| 2026-05-07 14:40 | 38.39278 | 12.27328 | 35892 ft | 382 kts | 288° |
| 2026-05-07 14:40 | 38.41652 | 12.21258 | 35894 ft | 383 kts | 288° |
| 2026-05-07 14:41 | 38.44022 | 12.15181 | 35906 ft | 383 kts | 288° |
| 2026-05-07 14:41 | 38.46374 | 12.09139 | 35908 ft | 383 kts | 288° |
| 2026-05-07 14:42 | 38.48757 | 12.03013 | 35937 ft | 383 kts | 287° |
| 2026-05-07 14:42 | 38.51121 | 11.96919 | 35948 ft | 383 kts | 287° |
| 2026-05-07 14:43 | 38.53466 | 11.90864 | 35938 ft | 383 kts | 287° |
| 2026-05-07 14:43 | 38.55823 | 11.84767 | 35930 ft | 383 kts | 287° |
| 2026-05-07 14:44 | 38.58174 | 11.78671 | 35930 ft | 382 kts | 287° |
| 2026-05-07 14:44 | 38.60525 | 11.72572 | 35928 ft | 382 kts | 287° |
| 2026-05-07 14:45 | 38.62870 | 11.66469 | 35938 ft | 382 kts | 286° |
| 2026-05-07 14:45 | 38.65211 | 11.60355 | 35928 ft | 383 kts | 286° |
| 2026-05-07 14:46 | 38.67562 | 11.54227 | 35927 ft | 386 kts | 288° |
| 2026-05-07 14:46 | 38.70658 | 11.48444 | 35924 ft | 396 kts | 294° |
| 2026-05-07 14:47 | 38.73868 | 11.42710 | 35924 ft | 396 kts | 294° |
| 2026-05-07 14:47 | 38.77079 | 11.36969 | 35928 ft | 397 kts | 294° |
| 2026-05-07 14:48 | 38.80293 | 11.31222 | 35971 ft | 397 kts | 294° |
| 2026-05-07 14:48 | 38.83492 | 11.25497 | 35933 ft | 394 kts | 293° |
| 2026-05-07 14:49 | 38.86681 | 11.19774 | 35933 ft | 394 kts | 293° |
| 2026-05-07 14:49 | 38.88273 | 11.16918 | 35500 ft | 393 kts | 293° |
| 2026-05-07 14:49 | 38.89865 | 11.14050 | 34772 ft | 396 kts | 293° |
| 2026-05-07 14:50 | 38.91461 | 11.11161 | 34175 ft | 398 kts | 292° |
| 2026-05-07 14:50 | 38.93068 | 11.08247 | 33975 ft | 402 kts | 292° |
| 2026-05-07 14:50 | 38.96323 | 11.02362 | 33933 ft | 406 kts | 293° |
| 2026-05-07 14:51 | 38.99598 | 10.96450 | 33936 ft | 406 kts | 293° |
| 2026-05-07 14:51 | 39.02866 | 10.90530 | 33929 ft | 406 kts | 293° |
| 2026-05-07 14:52 | 39.06127 | 10.84602 | 33938 ft | 406 kts | 292° |
| 2026-05-07 14:52 | 39.09386 | 10.78671 | 33968 ft | 406 kts | 293° |
| 2026-05-07 14:53 | 39.12645 | 10.72734 | 33960 ft | 406 kts | 293° |
| 2026-05-07 14:53 | 39.15902 | 10.66793 | 33956 ft | 406 kts | 293° |
| 2026-05-07 14:54 | 39.19153 | 10.60840 | 33959 ft | 406 kts | 293° |
| 2026-05-07 14:54 | 39.22400 | 10.54883 | 33983 ft | 406 kts | 293° |
| 2026-05-07 14:55 | 39.25646 | 10.48917 | 33974 ft | 406 kts | 293° |
| 2026-05-07 14:55 | 39.28888 | 10.42954 | 33969 ft | 406 kts | 293° |
| 2026-05-07 14:56 | 39.32125 | 10.36983 | 33965 ft | 406 kts | 293° |
| 2026-05-07 14:56 | 39.35359 | 10.31007 | 33997 ft | 406 kts | 293° |
| 2026-05-07 14:57 | 39.38044 | 10.26050 | 33988 ft | 404 kts | 293° |
| 2026-05-07 14:57 | 39.41259 | 10.20103 | 34021 ft | 403 kts | 293° |
| 2026-05-07 14:58 | 39.44458 | 10.14159 | 33965 ft | 402 kts | 292° |
| 2026-05-07 14:58 | 39.47649 | 10.08217 | 33958 ft | 402 kts | 292° |
| 2026-05-07 14:59 | 39.50844 | 10.02262 | 33965 ft | 403 kts | 292° |
| 2026-05-07 14:59 | 39.54041 | 9.96296 | 33964 ft | 403 kts | 292° |
| 2026-05-07 15:00 | 39.57236 | 9.90316 | 33971 ft | 403 kts | 292° |
| 2026-05-07 15:00 | 39.60424 | 9.84332 | 33981 ft | 403 kts | 292° |
| 2026-05-07 15:01 | 39.63616 | 9.78337 | 34012 ft | 405 kts | 294° |
| 2026-05-07 15:01 | 39.66818 | 9.72312 | 33998 ft | 406 kts | 294° |
| 2026-05-07 15:02 | 39.70036 | 9.66258 | 34005 ft | 407 kts | 294° |
| 2026-05-07 15:02 | 39.73251 | 9.60192 | 34010 ft | 408 kts | 294° |
| 2026-05-07 15:03 | 39.76462 | 9.54112 | 34017 ft | 409 kts | 294° |
| 2026-05-07 15:03 | 39.79671 | 9.48013 | 34013 ft | 409 kts | 294° |
| 2026-05-07 15:04 | 39.82886 | 9.41907 | 34015 ft | 411 kts | 294° |
| 2026-05-07 15:04 | 39.86123 | 9.35759 | 33943 ft | 413 kts | 294° |
| 2026-05-07 15:05 | 39.89359 | 9.29577 | 33951 ft | 414 kts | 295° |
| 2026-05-07 15:05 | 39.92604 | 9.23372 | 33940 ft | 415 kts | 295° |
| 2026-05-07 15:06 | 39.95861 | 9.17136 | 33938 ft | 416 kts | 295° |
| 2026-05-07 15:06 | 39.99159 | 9.10905 | 33944 ft | 421 kts | 297° |
| 2026-05-07 15:07 | 40.02534 | 9.04683 | 33934 ft | 420 kts | 295° |
| 2026-05-07 15:07 | 40.05741 | 8.98298 | 33926 ft | 421 kts | 295° |
| 2026-05-07 15:08 | 40.08963 | 8.91892 | 33919 ft | 424 kts | 295° |
| 2026-05-07 15:08 | 40.12261 | 8.85495 | 33922 ft | 425 kts | 296° |
| 2026-05-07 15:09 | 40.15561 | 8.79138 | 33956 ft | 426 kts | 296° |
| 2026-05-07 15:09 | 40.18880 | 8.72726 | 33955 ft | 425 kts | 295° |
| 2026-05-07 15:10 | 40.22182 | 8.66300 | 33950 ft | 426 kts | 295° |
| 2026-05-07 15:10 | 40.25487 | 8.59852 | 33940 ft | 427 kts | 295° |
| 2026-05-07 15:11 | 40.28795 | 8.53389 | 33936 ft | 427 kts | 295° |
| 2026-05-07 15:11 | 40.32097 | 8.46916 | 33934 ft | 427 kts | 295° |
| 2026-05-07 15:12 | 40.35400 | 8.40435 | 33940 ft | 427 kts | 295° |
| 2026-05-07 15:12 | 40.38706 | 8.33953 | 33966 ft | 428 kts | 295° |
| 2026-05-07 15:13 | 40.41915 | 8.27399 | 33945 ft | 422 kts | 289° |
| 2026-05-07 15:13 | 40.43746 | 8.20274 | 33937 ft | 406 kts | 273° |
| 2026-05-07 15:14 | 40.44127 | 8.12961 | 33937 ft | 401 kts | 266° |
| 2026-05-07 15:14 | 40.44354 | 8.05641 | 33935 ft | 402 kts | 267° |
| 2026-05-07 15:15 | 40.44579 | 7.98310 | 33934 ft | 402 kts | 267° |
| 2026-05-07 15:15 | 40.44804 | 7.91077 | 33926 ft | 403 kts | 266° |
| 2026-05-07 15:16 | 40.45028 | 7.83712 | 33936 ft | 404 kts | 266° |
| 2026-05-07 15:16 | 40.45244 | 7.76326 | 33930 ft | 405 kts | 266° |
| 2026-05-07 15:17 | 40.45454 | 7.68932 | 33934 ft | 406 kts | 266° |
| 2026-05-07 15:17 | 40.45656 | 7.61530 | 33930 ft | 406 kts | 266° |
| 2026-05-07 15:18 | 40.45858 | 7.54115 | 33939 ft | 407 kts | 266° |
| 2026-05-07 15:18 | 40.46056 | 7.46688 | 33945 ft | 407 kts | 266° |
| 2026-05-07 15:19 | 40.46243 | 7.39295 | 33939 ft | 408 kts | 266° |
| 2026-05-07 15:19 | 40.46432 | 7.31845 | 33938 ft | 408 kts | 266° |
| 2026-05-07 15:20 | 40.46616 | 7.24387 | 33948 ft | 409 kts | 266° |
| 2026-05-07 15:20 | 40.46790 | 7.16927 | 33951 ft | 409 kts | 266° |
| 2026-05-07 15:21 | 40.46962 | 7.09468 | 33957 ft | 409 kts | 266° |
| 2026-05-07 15:21 | 40.47130 | 7.02015 | 33958 ft | 409 kts | 266° |
| 2026-05-07 15:22 | 40.47296 | 6.94546 | 33955 ft | 409 kts | 266° |
| 2026-05-07 15:22 | 40.47452 | 6.87083 | 33959 ft | 409 kts | 266° |
| 2026-05-07 15:23 | 40.47606 | 6.79610 | 33966 ft | 410 kts | 265° |
| 2026-05-07 15:23 | 40.47758 | 6.72123 | 33952 ft | 410 kts | 265° |
| 2026-05-07 15:24 | 40.47903 | 6.64626 | 33958 ft | 411 kts | 265° |
| 2026-05-07 15:24 | 40.48048 | 6.57124 | 33957 ft | 411 kts | 265° |
| 2026-05-07 15:25 | 40.48180 | 6.49667 | 33959 ft | 411 kts | 265° |
| 2026-05-07 15:25 | 40.48303 | 6.42155 | 33965 ft | 412 kts | 265° |
| 2026-05-07 15:26 | 40.48433 | 6.34622 | 33961 ft | 413 kts | 265° |
| 2026-05-07 15:26 | 40.48554 | 6.27081 | 33957 ft | 413 kts | 265° |
| 2026-05-07 15:27 | 40.48664 | 6.19529 | 33955 ft | 414 kts | 265° |
| 2026-05-07 15:27 | 40.48778 | 6.11975 | 33952 ft | 414 kts | 265° |
| 2026-05-07 15:28 | 40.48889 | 6.04412 | 33976 ft | 414 kts | 264° |
| 2026-05-07 15:28 | 40.48994 | 5.96863 | 33976 ft | 413 kts | 264° |
| 2026-05-07 15:29 | 40.49091 | 5.89320 | 33971 ft | 413 kts | 264° |
| 2026-05-07 15:29 | 40.49180 | 5.81783 | 33969 ft | 413 kts | 264° |
| 2026-05-07 15:30 | 40.49267 | 5.74249 | 33968 ft | 412 kts | 264° |
| 2026-05-07 15:30 | 40.49353 | 5.66715 | 33988 ft | 412 kts | 264° |
| 2026-05-07 15:31 | 40.49435 | 5.59189 | 33985 ft | 412 kts | 264° |
| 2026-05-07 15:31 | 40.49509 | 5.51674 | 33980 ft | 411 kts | 264° |
| 2026-05-07 15:32 | 40.49568 | 5.44169 | 33977 ft | 411 kts | 263° |
| 2026-05-07 15:32 | 40.49630 | 5.36662 | 33977 ft | 411 kts | 264° |
| 2026-05-07 15:33 | 40.49691 | 5.29159 | 33994 ft | 411 kts | 263° |
| 2026-05-07 15:33 | 40.49739 | 5.21647 | 33982 ft | 411 kts | 263° |
| 2026-05-07 15:34 | 40.49783 | 5.14143 | 33975 ft | 411 kts | 263° |
| 2026-05-07 15:34 | 40.49827 | 5.06687 | 33971 ft | 411 kts | 263° |
| 2026-05-07 15:35 | 40.49869 | 4.99176 | 33962 ft | 411 kts | 263° |
| 2026-05-07 15:35 | 40.49905 | 4.91664 | 33975 ft | 412 kts | 263° |
| 2026-05-07 15:36 | 40.49934 | 4.84136 | 33966 ft | 412 kts | 263° |
| 2026-05-07 15:36 | 40.49955 | 4.76705 | 33961 ft | 413 kts | 263° |
| 2026-05-07 15:37 | 40.49975 | 4.69159 | 33957 ft | 413 kts | 263° |
| 2026-05-07 15:37 | 40.49990 | 4.61614 | 33959 ft | 413 kts | 263° |
| 2026-05-07 15:38 | 40.49998 | 4.54062 | 33976 ft | 414 kts | 263° |
| 2026-05-07 15:38 | 40.50003 | 4.46500 | 33967 ft | 414 kts | 263° |
| 2026-05-07 15:39 | 40.49997 | 4.38935 | 33962 ft | 414 kts | 263° |
| 2026-05-07 15:39 | 40.49997 | 4.31365 | 33961 ft | 414 kts | 264° |
| 2026-05-07 15:40 | 40.50006 | 4.23793 | 33960 ft | 415 kts | 264° |
| 2026-05-07 15:40 | 40.50010 | 4.16216 | 33984 ft | 415 kts | 263° |
| 2026-05-07 15:41 | 40.50012 | 4.08692 | 33975 ft | 415 kts | 263° |
| 2026-05-07 15:41 | 40.49999 | 4.01115 | 33971 ft | 414 kts | 263° |
| 2026-05-07 15:42 | 40.49452 | 3.93676 | 33965 ft | 408 kts | 256° |
| 2026-05-07 15:42 | 40.48715 | 3.86285 | 33962 ft | 408 kts | 256° |
| 2026-05-07 15:43 | 40.47989 | 3.78891 | 33990 ft | 408 kts | 255° |
| 2026-05-07 15:43 | 40.47258 | 3.71507 | 33983 ft | 407 kts | 255° |
| 2026-05-07 15:44 | 40.46512 | 3.64140 | 33974 ft | 407 kts | 255° |
| 2026-05-07 15:44 | 40.45765 | 3.56778 | 33970 ft | 407 kts | 255° |
| 2026-05-07 15:45 | 40.45016 | 3.49424 | 33964 ft | 406 kts | 255° |
| 2026-05-07 15:45 | 40.44256 | 3.42073 | 33961 ft | 406 kts | 255° |
| 2026-05-07 15:46 | 40.43193 | 3.32315 | 33964 ft | 405 kts | 254° |
| 2026-05-07 15:47 | 40.42330 | 3.25010 | 33938 ft | 405 kts | 254° |
| 2026-05-07 15:47 | 40.41464 | 3.17702 | 33943 ft | 405 kts | 255° |
| 2026-05-07 15:48 | 40.40607 | 3.10391 | 33941 ft | 406 kts | 255° |
| 2026-05-07 15:48 | 40.39747 | 3.03079 | 33971 ft | 406 kts | 254° |
| 2026-05-07 15:49 | 40.38880 | 2.95766 | 33965 ft | 406 kts | 254° |
| 2026-05-07 15:49 | 40.38006 | 2.88450 | 34277 ft | 406 kts | 254° |
| 2026-05-07 15:49 | 40.37569 | 2.84795 | 34539 ft | 406 kts | 254° |
| 2026-05-07 15:50 | 40.37128 | 2.81143 | 34785 ft | 406 kts | 255° |
| 2026-05-07 15:50 | 40.36686 | 2.77485 | 35035 ft | 406 kts | 255° |
| 2026-05-07 15:50 | 40.36243 | 2.73822 | 35275 ft | 407 kts | 255° |
| 2026-05-07 15:50 | 40.35800 | 2.70162 | 35515 ft | 407 kts | 255° |
| 2026-05-07 15:51 | 40.35358 | 2.66496 | 35770 ft | 407 kts | 255° |
| 2026-05-07 15:51 | 40.34915 | 2.62819 | 35921 ft | 409 kts | 255° |
| 2026-05-07 15:51 | 40.34466 | 2.59135 | 35947 ft | 410 kts | 255° |
| 2026-05-07 15:52 | 40.33559 | 2.51755 | 35948 ft | 410 kts | 255° |
| 2026-05-07 15:52 | 40.32649 | 2.44379 | 35948 ft | 410 kts | 255° |
| 2026-05-07 15:53 | 40.31737 | 2.36998 | 35945 ft | 410 kts | 255° |
| 2026-05-07 15:53 | 40.30822 | 2.29627 | 35945 ft | 410 kts | 255° |
| 2026-05-07 15:54 | 40.29898 | 2.22249 | 35957 ft | 411 kts | 255° |
| 2026-05-07 15:54 | 40.28965 | 2.14862 | 35950 ft | 411 kts | 255° |
| 2026-05-07 15:55 | 40.27892 | 2.07531 | 35946 ft | 408 kts | 250° |
| 2026-05-07 15:55 | 40.26419 | 2.00360 | 35951 ft | 408 kts | 250° |
| 2026-05-07 15:56 | 40.24958 | 1.93237 | 35949 ft | 408 kts | 250° |
| 2026-05-07 15:56 | 40.23485 | 1.86055 | 35947 ft | 409 kts | 250° |
| 2026-05-07 15:57 | 40.22004 | 1.78870 | 35938 ft | 410 kts | 250° |
| 2026-05-07 15:57 | 40.20513 | 1.71673 | 35937 ft | 410 kts | 250° |
| 2026-05-07 15:58 | 40.19018 | 1.64466 | 35941 ft | 411 kts | 250° |
| 2026-05-07 15:58 | 40.17525 | 1.57253 | 35943 ft | 411 kts | 250° |
| 2026-05-07 15:59 | 40.16019 | 1.50044 | 35973 ft | 411 kts | 250° |
| 2026-05-07 15:59 | 40.14503 | 1.42839 | 35966 ft | 411 kts | 250° |
| 2026-05-07 16:00 | 40.12981 | 1.35635 | 35962 ft | 411 kts | 250° |
| 2026-05-07 16:00 | 40.11467 | 1.28433 | 35959 ft | 411 kts | 250° |
| 2026-05-07 16:01 | 40.09945 | 1.21236 | 35958 ft | 411 kts | 250° |
| 2026-05-07 16:01 | 40.08417 | 1.14041 | 35978 ft | 411 kts | 250° |
| 2026-05-07 16:02 | 40.06882 | 1.06838 | 35952 ft | 412 kts | 250° |
| 2026-05-07 16:02 | 40.05342 | 0.99631 | 35945 ft | 412 kts | 250° |
| 2026-05-07 16:03 | 40.03792 | 0.92421 | 35951 ft | 413 kts | 250° |
| 2026-05-07 16:03 | 40.02232 | 0.85210 | 35924 ft | 413 kts | 250° |
| 2026-05-07 16:04 | 40.00674 | 0.77997 | 35927 ft | 413 kts | 250° |
| 2026-05-07 16:04 | 39.99109 | 0.70767 | 35937 ft | 415 kts | 251° |
| 2026-05-07 16:05 | 39.97538 | 0.63553 | 35925 ft | 417 kts | 251° |
| 2026-05-07 16:05 | 39.95946 | 0.56270 | 35929 ft | 419 kts | 251° |
| 2026-05-07 16:06 | 39.94346 | 0.48966 | 35929 ft | 419 kts | 251° |
| 2026-05-07 16:06 | 39.92735 | 0.41660 | 35933 ft | 420 kts | 251° |
| 2026-05-07 16:07 | 39.91126 | 0.34343 | 35944 ft | 421 kts | 251° |
| 2026-05-07 16:07 | 39.89508 | 0.27015 | 35937 ft | 422 kts | 251° |
| 2026-05-07 16:08 | 39.87877 | 0.19672 | 35934 ft | 422 kts | 251° |
| 2026-05-07 16:08 | 39.86240 | 0.12322 | 35938 ft | 423 kts | 251° |
| 2026-05-07 16:09 | 39.84596 | 0.04973 | 35941 ft | 423 kts | 251° |
| 2026-05-07 16:09 | 39.83227 | -0.02481 | 35960 ft | 426 kts | 262° |
| 2026-05-07 16:10 | 39.82713 | -0.10174 | 35951 ft | 427 kts | 262° |
| 2026-05-07 16:10 | 39.82184 | -0.17871 | 35949 ft | 427 kts | 262° |
| 2026-05-07 16:11 | 39.81642 | -0.25569 | 35955 ft | 427 kts | 262° |
| 2026-05-07 16:11 | 39.81093 | -0.33271 | 35952 ft | 428 kts | 262° |
| 2026-05-07 16:12 | 39.80541 | -0.40972 | 35951 ft | 428 kts | 262° |
| 2026-05-07 16:12 | 39.79988 | -0.48663 | 35946 ft | 427 kts | 262° |
| 2026-05-07 16:13 | 39.79425 | -0.56342 | 35951 ft | 427 kts | 262° |
| 2026-05-07 16:13 | 39.78858 | -0.64018 | 35958 ft | 426 kts | 262° |
| 2026-05-07 16:14 | 39.78289 | -0.71685 | 35958 ft | 426 kts | 262° |
| 2026-05-07 16:14 | 39.77713 | -0.79352 | 35988 ft | 426 kts | 263° |
| 2026-05-07 16:15 | 39.77134 | -0.86993 | 35989 ft | 424 kts | 263° |
| 2026-05-07 16:15 | 39.76555 | -0.94619 | 35954 ft | 423 kts | 263° |
| 2026-05-07 16:16 | 39.75966 | -1.02225 | 35938 ft | 423 kts | 263° |
| 2026-05-07 16:16 | 39.76308 | -1.09846 | 35930 ft | 427 kts | 281° |
| 2026-05-07 16:17 | 39.78488 | -1.16493 | 35937 ft | 433 kts | 296° |
| 2026-05-07 16:17 | 39.81467 | -1.23306 | 35953 ft | 433 kts | 296° |
| 2026-05-07 16:18 | 39.84427 | -1.30134 | 35950 ft | 434 kts | 295° |
| 2026-05-07 16:18 | 39.87372 | -1.36989 | 35959 ft | 434 kts | 295° |
| 2026-05-07 16:19 | 39.90331 | -1.43842 | 35976 ft | 434 kts | 295° |
| 2026-05-07 16:19 | 39.93298 | -1.50718 | 35377 ft | 438 kts | 295° |
| 2026-05-07 16:19 | 39.94795 | -1.54204 | 34638 ft | 441 kts | 296° |
| 2026-05-07 16:20 | 39.96279 | -1.57651 | 33827 ft | 433 kts | 296° |
| 2026-05-07 16:20 | 39.97751 | -1.61076 | 32624 ft | 432 kts | 295° |
| 2026-05-07 16:20 | 39.99202 | -1.64458 | 31744 ft | 424 kts | 295° |
| 2026-05-07 16:20 | 40.00638 | -1.67812 | 30858 ft | 426 kts | 295° |
| 2026-05-07 16:21 | 40.02094 | -1.71232 | 29775 ft | 437 kts | 295° |
| 2026-05-07 16:21 | 40.03581 | -1.74740 | 28641 ft | 445 kts | 295° |
| 2026-05-07 16:21 | 40.05091 | -1.78290 | 27574 ft | 450 kts | 295° |
| 2026-05-07 16:21 | 40.06625 | -1.81898 | 26312 ft | 459 kts | 296° |
| 2026-05-07 16:22 | 40.08188 | -1.85580 | 25092 ft | 467 kts | 296° |
| 2026-05-07 16:22 | 40.09778 | -1.89319 | 23896 ft | 474 kts | 296° |
| 2026-05-07 16:22 | 40.11385 | -1.93101 | 22766 ft | 477 kts | 296° |
| 2026-05-07 16:22 | 40.12982 | -1.96850 | 22039 ft | 468 kts | 296° |
| 2026-05-07 16:23 | 40.14553 | -2.00546 | 21066 ft | 458 kts | 296° |
| 2026-05-07 16:23 | 40.16060 | -2.04100 | 20334 ft | 452 kts | 296° |
| 2026-05-07 16:23 | 40.17572 | -2.07677 | 19644 ft | 447 kts | 296° |
| 2026-05-07 16:23 | 40.19064 | -2.11212 | 18943 ft | 442 kts | 296° |
| 2026-05-07 16:24 | 40.20545 | -2.14716 | 18237 ft | 438 kts | 297° |
| 2026-05-07 16:24 | 40.22028 | -2.18237 | 17505 ft | 433 kts | 297° |
| 2026-05-07 16:24 | 40.23451 | -2.21628 | 16848 ft | 429 kts | 296° |
| 2026-05-07 16:24 | 40.24805 | -2.25072 | 16182 ft | 422 kts | 291° |
| 2026-05-07 16:25 | 40.25718 | -2.28680 | 15534 ft | 414 kts | 281° |
| 2026-05-07 16:25 | 40.26142 | -2.32361 | 15160 ft | 402 kts | 272° |
| 2026-05-07 16:25 | 40.26172 | -2.35934 | 15034 ft | 384 kts | 268° |
| 2026-05-07 16:25 | 40.26157 | -2.39368 | 14910 ft | 370 kts | 268° |
| 2026-05-07 16:26 | 40.26277 | -2.42713 | 14179 ft | 374 kts | 279° |
| 2026-05-07 16:26 | 40.27198 | -2.45949 | 13101 ft | 388 kts | 299° |
| 2026-05-07 16:26 | 40.28943 | -2.48691 | 12104 ft | 397 kts | 315° |
| 2026-05-07 16:26 | 40.30315 | -2.50356 | 11555 ft | 398 kts | 316° |
| 2026-05-07 16:27 | 40.33000 | -2.53604 | 10610 ft | 396 kts | 316° |
| 2026-05-07 16:27 | 40.35010 | -2.56036 | 10175 ft | 388 kts | 316° |
| 2026-05-07 16:27 | 40.36951 | -2.58387 | 10014 ft | 371 kts | 315° |
| 2026-05-07 16:27 | 40.38719 | -2.60715 | 10027 ft | 350 kts | 312° |
| 2026-05-07 16:28 | 40.40331 | -2.62986 | 10033 ft | 332 kts | 310° |
| 2026-05-07 16:28 | 40.41845 | -2.65167 | 10033 ft | 315 kts | 310° |
| 2026-05-07 16:28 | 40.43278 | -2.67253 | 9978 ft | 302 kts | 310° |
| 2026-05-07 16:28 | 40.44657 | -2.69271 | 9867 ft | 294 kts | 309° |
| 2026-05-07 16:29 | 40.46019 | -2.71263 | 9738 ft | 292 kts | 310° |
| 2026-05-07 16:29 | 40.47375 | -2.73246 | 9601 ft | 292 kts | 309° |
| 2026-05-07 16:29 | 40.48731 | -2.75222 | 9475 ft | 291 kts | 310° |
| 2026-05-07 16:29 | 40.50089 | -2.77195 | 9328 ft | 291 kts | 310° |
| 2026-05-07 16:30 | 40.51443 | -2.79164 | 9202 ft | 290 kts | 310° |
| 2026-05-07 16:30 | 40.52791 | -2.81129 | 9081 ft | 289 kts | 310° |
| 2026-05-07 16:30 | 40.54136 | -2.83094 | 8935 ft | 289 kts | 309° |
| 2026-05-07 16:30 | 40.55482 | -2.85059 | 8811 ft | 289 kts | 309° |
| 2026-05-07 16:31 | 40.56825 | -2.87021 | 8688 ft | 289 kts | 309° |
| 2026-05-07 16:31 | 40.57716 | -2.88321 | 8598 ft | 288 kts | 310° |
| 2026-05-07 16:31 | 40.59076 | -2.90303 | 8466 ft | 288 kts | 309° |
| 2026-05-07 16:31 | 40.60418 | -2.92260 | 8336 ft | 288 kts | 309° |
| 2026-05-07 16:32 | 40.61741 | -2.94188 | 8210 ft | 287 kts | 310° |
| 2026-05-07 16:32 | 40.63079 | -2.96135 | 8074 ft | 287 kts | 310° |
| 2026-05-07 16:32 | 40.64417 | -2.98087 | 8021 ft | 286 kts | 310° |
| 2026-05-07 16:32 | 40.65746 | -3.00033 | 8022 ft | 286 kts | 309° |
| 2026-05-07 16:33 | 40.67078 | -3.01986 | 8021 ft | 287 kts | 309° |
| 2026-05-07 16:33 | 40.68411 | -3.03942 | 8024 ft | 287 kts | 309° |
| 2026-05-07 16:33 | 40.69743 | -3.05896 | 8031 ft | 286 kts | 310° |
| 2026-05-07 16:33 | 40.71069 | -3.07840 | 8029 ft | 285 kts | 310° |
| 2026-05-07 16:34 | 40.72390 | -3.09779 | 8026 ft | 284 kts | 310° |
| 2026-05-07 16:34 | 40.73709 | -3.11724 | 8030 ft | 285 kts | 310° |
| 2026-05-07 16:34 | 40.75029 | -3.13671 | 8026 ft | 285 kts | 310° |
| 2026-05-07 16:34 | 40.76352 | -3.15618 | 8025 ft | 285 kts | 310° |
| 2026-05-07 16:35 | 40.77674 | -3.17562 | 8028 ft | 284 kts | 310° |
| 2026-05-07 16:35 | 40.78994 | -3.19507 | 8028 ft | 285 kts | 309° |
| 2026-05-07 16:35 | 40.80315 | -3.21454 | 8035 ft | 285 kts | 309° |
| 2026-05-07 16:35 | 40.81640 | -3.23406 | 8028 ft | 285 kts | 310° |
| 2026-05-07 16:36 | 40.82963 | -3.25359 | 8030 ft | 285 kts | 310° |
| 2026-05-07 16:36 | 40.84282 | -3.27309 | 8025 ft | 285 kts | 309° |
| 2026-05-07 16:36 | 40.85603 | -3.29263 | 8026 ft | 285 kts | 309° |
| 2026-05-07 16:36 | 40.86923 | -3.31217 | 8027 ft | 285 kts | 310° |
| 2026-05-07 16:37 | 40.88235 | -3.33158 | 8029 ft | 278 kts | 309° |
| 2026-05-07 16:37 | 40.89486 | -3.35005 | 8025 ft | 262 kts | 309° |
| 2026-05-07 16:37 | 40.90651 | -3.36778 | 8030 ft | 252 kts | 303° |
| 2026-05-07 16:37 | 40.91481 | -3.38782 | 8023 ft | 247 kts | 288° |
| 2026-05-07 16:38 | 40.91906 | -3.40973 | 7885 ft | 246 kts | 279° |
| 2026-05-07 16:38 | 40.92255 | -3.43215 | 7523 ft | 250 kts | 279° |
| 2026-05-07 16:38 | 40.92448 | -3.45464 | 7200 ft | 243 kts | 266° |
| 2026-05-07 16:38 | 40.92222 | -3.47669 | 6691 ft | 240 kts | 258° |
| 2026-05-07 16:39 | 40.91893 | -3.49749 | 6608 ft | 224 kts | 247° |
| 2026-05-07 16:39 | 40.91129 | -3.51467 | 6510 ft | 213 kts | 225° |
| 2026-05-07 16:39 | 40.89973 | -3.52634 | 6309 ft | 208 kts | 204° |
| 2026-05-07 16:39 | 40.88671 | -3.53415 | 6140 ft | 202 kts | 203° |
| 2026-05-07 16:40 | 40.87403 | -3.54179 | 6056 ft | 200 kts | 204° |
| 2026-05-07 16:40 | 40.86091 | -3.54705 | 5978 ft | 196 kts | 188° |
| 2026-05-07 16:40 | 40.84743 | -3.54999 | 5880 ft | 195 kts | 190° |
| 2026-05-07 16:40 | 40.83399 | -3.55303 | 5773 ft | 196 kts | 189° |
| 2026-05-07 16:41 | 40.82053 | -3.55619 | 5680 ft | 196 kts | 193° |
| 2026-05-07 16:41 | 40.80724 | -3.55938 | 5592 ft | 195 kts | 185° |
| 2026-05-07 16:41 | 40.79371 | -3.56045 | 5521 ft | 193 kts | 181° |
| 2026-05-07 16:41 | 40.78022 | -3.56065 | 5521 ft | 194 kts | 180° |
| 2026-05-07 16:42 | 40.76659 | -3.56064 | 5522 ft | 196 kts | 180° |
| 2026-05-07 16:42 | 40.75297 | -3.56058 | 5524 ft | 194 kts | 180° |
| 2026-05-07 16:42 | 40.73952 | -3.56051 | 5520 ft | 193 kts | 180° |
| 2026-05-07 16:42 | 40.72609 | -3.56043 | 5543 ft | 194 kts | 180° |
| 2026-05-07 16:43 | 40.71257 | -3.56036 | 5472 ft | 194 kts | 180° |
| 2026-05-07 16:43 | 40.69930 | -3.56029 | 5273 ft | 188 kts | 179° |
| 2026-05-07 16:43 | 40.68641 | -3.56022 | 5036 ft | 183 kts | 179° |
| 2026-05-07 16:43 | 40.67407 | -3.56016 | 4816 ft | 172 kts | 178° |
| 2026-05-07 16:44 | 40.66261 | -3.56010 | 4614 ft | 156 kts | 178° |
| 2026-05-07 16:44 | 40.65207 | -3.56004 | 4384 ft | 148 kts | 178° |
| 2026-05-07 16:44 | 40.64187 | -3.55998 | 4194 ft | 145 kts | 177° |
| 2026-05-07 16:44 | 40.63185 | -3.55993 | 3998 ft | 144 kts | 178° |
| 2026-05-07 16:45 | 40.62181 | -3.55987 | 3795 ft | 146 kts | 179° |
| 2026-05-07 16:45 | 40.61160 | -3.55981 | 3583 ft | 148 kts | 179° |
| 2026-05-07 16:45 | 40.60120 | -3.55975 | 3382 ft | 151 kts | 179° |
| 2026-05-07 16:45 | 40.59061 | -3.55970 | 3166 ft | 153 kts | 180° |
| 2026-05-07 16:46 | 40.57991 | -3.55964 | 2960 ft | 154 kts | 179° |
| 2026-05-07 16:46 | 40.56920 | -3.55969 | 2734 ft | 153 kts | 179° |
| 2026-05-07 16:46 | 40.55862 | -3.55970 | 2532 ft | 150 kts | 178° |
| 2026-05-07 16:46 | 40.54832 | -3.55944 | 2335 ft | 147 kts | 177° |
| 2026-05-07 16:47 | 40.53817 | -3.55936 | 2129 ft | 145 kts | 178° |
| 2026-05-07 16:47 | 40.52814 | -3.55944 | 1990 ft | 143 kts | 178° |
| 2026-05-07 16:47 | 40.51874 | -3.55935 | 1954 ft | 119 kts | 179° |
| 2026-05-07 16:47 | 40.51223 | -3.55928 | 1953 ft | 62 kts | 180° |
| 2026-05-07 16:48 | 40.50981 | -3.55984 | 1965 ft | 26 kts | 204° |
| 2026-05-07 16:48 | 40.50870 | -3.56064 | 1963 ft | 0 kts | 210° |
| 2026-05-07 16:48 | 40.50870 | -3.56065 | 1963 ft | 0 kts | 210° |
| 2026-05-07 16:49 | 40.50849 | -3.56080 | 1964 ft | 4 kts | 210° |
| 2026-05-07 16:50 | 40.50828 | -3.56096 | 1964 ft | 5 kts | 210° |
| 2026-05-07 16:50 | 40.50787 | -3.56125 | 1965 ft | 8 kts | 204° |
| 2026-05-07 16:50 | 40.50718 | -3.56150 | 1965 ft | 12 kts | 186° |
| 2026-05-07 16:50 | 40.50637 | -3.56150 | 1964 ft | 9 kts | 180° |
| 2026-05-07 16:51 | 40.50567 | -3.56121 | 1964 ft | 13 kts | 128° |
| 2026-05-07 16:51 | 40.50494 | -3.56124 | 1964 ft | 12 kts | 205° |
| 2026-05-07 16:51 | 40.50400 | -3.56150 | 1963 ft | 16 kts | 176° |
| 2026-05-07 16:51 | 40.50311 | -3.56147 | 1960 ft | 10 kts | 180° |
| 2026-05-07 16:52 | 40.50220 | -3.56147 | 1959 ft | 15 kts | 180° |
| 2026-05-07 16:52 | 40.50189 | -3.56146 | 1959 ft | 0 kts | 180° |
| 2026-05-07 16:52 | 40.50161 | -3.56147 | 1959 ft | 10 kts | 182° |
| 2026-05-07 16:52 | 40.50112 | -3.56217 | 1962 ft | 12 kts | 251° |
| 2026-05-07 16:53 | 40.50035 | -3.56259 | 1961 ft | 14 kts | 179° |
| 2026-05-07 16:53 | 40.49923 | -3.56253 | 1961 ft | 18 kts | 173° |
| 2026-05-07 16:53 | 40.49786 | -3.56249 | 1961 ft | 21 kts | 179° |
| 2026-05-07 16:53 | 40.49690 | -3.56248 | 1961 ft | 13 kts | 179° |
| 2026-05-07 16:54 | 40.49588 | -3.56247 | 1961 ft | 17 kts | 179° |
| 2026-05-07 16:54 | 40.49460 | -3.56247 | 1961 ft | 20 kts | 179° |
| 2026-05-07 16:54 | 40.49310 | -3.56246 | 1962 ft | 23 kts | 180° |
| 2026-05-07 16:54 | 40.49205 | -3.56245 | 1962 ft | 13 kts | 180° |
| 2026-05-07 16:55 | 40.49101 | -3.56245 | 1962 ft | 17 kts | 180° |
| 2026-05-07 16:55 | 40.48985 | -3.56244 | 1962 ft | 10 kts | 179° |
| 2026-05-07 16:55 | 40.48904 | -3.56245 | 1962 ft | 13 kts | 186° |
| 2026-05-07 16:55 | 40.48863 | -3.56346 | 1964 ft | 14 kts | 269° |
| 2026-05-07 16:56 | 40.48862 | -3.56481 | 1968 ft | 15 kts | 270° |
| 2026-05-07 16:56 | 40.48862 | -3.56622 | 1972 ft | 16 kts | 270° |
| 2026-05-07 16:56 | 40.48861 | -3.56937 | 1978 ft | 19 kts | 270° |
| 2026-05-07 16:57 | 40.48860 | -3.57116 | 1981 ft | 20 kts | 270° |
| 2026-05-07 16:57 | 40.48860 | -3.57311 | 1985 ft | 22 kts | 270° |
| 2026-05-07 16:57 | 40.48859 | -3.57520 | 1989 ft | 24 kts | 270° |
| 2026-05-07 16:57 | 40.48859 | -3.57743 | 1992 ft | 25 kts | 270° |
| 2026-05-07 16:58 | 40.48858 | -3.57901 | 1998 ft | 10 kts | 269° |
| 2026-05-07 16:58 | 40.48857 | -3.57990 | 2001 ft | 10 kts | 269° |
| 2026-05-07 16:58 | 40.48819 | -3.58047 | 2003 ft | 10 kts | 192° |
| 2026-05-07 16:58 | 40.48739 | -3.58050 | 2003 ft | 13 kts | 180° |
| 2026-05-07 16:59 | 40.48641 | -3.58049 | 2003 ft | 12 kts | 181° |
| 2026-05-07 16:59 | 40.48597 | -3.58129 | 2005 ft | 12 kts | 269° |
| 2026-05-07 16:59 | 40.48597 | -3.58241 | 2010 ft | 12 kts | 270° |
| 2026-05-07 16:59 | 40.48597 | -3.58349 | 2011 ft | 12 kts | 270° |
| 2026-05-07 17:00 | 40.48596 | -3.58454 | 2016 ft | 11 kts | 270° |
| 2026-05-07 17:00 | 40.48596 | -3.58556 | 2017 ft | 11 kts | 269° |
| 2026-05-07 17:00 | 40.48595 | -3.58658 | 2025 ft | 12 kts | 269° |
| 2026-05-07 17:00 | 40.48603 | -3.58784 | 2023 ft | 16 kts | 298° |
| 2026-05-07 17:01 | 40.48713 | -3.58810 | 2029 ft | 18 kts | 0° |
| 2026-05-07 17:01 | 40.48853 | -3.58811 | 2022 ft | 22 kts | 359° |
| 2026-05-07 17:01 | 40.48987 | -3.58812 | 2022 ft | 13 kts | 360° |
| 2026-05-07 17:01 | 40.49089 | -3.58812 | 2026 ft | 16 kts | 360° |
| 2026-05-07 17:02 | 40.49167 | -3.58813 | 2025 ft | 9 kts | 0° |
| 2026-05-07 17:02 | 40.49188 | -3.58884 | 2022 ft | 11 kts | 271° |
| 2026-05-07 17:02 | 40.49188 | -3.58940 | 2022 ft | 3 kts | 270° |
| 2026-05-07 17:02 | 40.49188 | -3.58966 | 2022 ft | 0 kts | 270° |